sensor_id;sensor_type;location;lat;lon;timestamp;P1;durP1;ratioP1;P2;durP2;ratioP2
79243;SDS011;68672;42.676;23.356;2023-07-30T00:02:14;3.72;;;2.90;;
79243;SDS011;68672;42.676;23.356;2023-07-30T00:04:40;4.57;;;3.15;;
79243;SDS011;68672;42.676;23.356;2023-07-30T00:07:05;4.72;;;3.47;;
79243;SDS011;68672;42.676;23.356;2023-07-30T00:09:31;5.55;;;2.90;;
79243;SDS011;68672;42.676;23.356;2023-07-30T00:11:56;5.03;;;3.25;;
79243;SDS011;68672;42.676;23.356;2023-07-30T00:14:22;3.95;;;2.85;;
79243;SDS011;68672;42.676;23.356;2023-07-30T00:16:47;4.38;;;2.60;;
79243;SDS011;68672;42.676;23.356;2023-07-30T00:19:12;4.32;;;3.67;;
79243;SDS011;68672;42.676;23.356;2023-07-30T00:21:38;3.53;;;3.03;;
79243;SDS011;68672;42.676;23.356;2023-07-30T00:24:03;6.43;;;3.50;;
79243;SDS011;68672;42.676;23.356;2023-07-30T00:26:29;3.55;;;2.67;;
79243;SDS011;68672;42.676;23.356;2023-07-30T00:28:55;4.68;;;3.25;;
79243;SDS011;68672;42.676;23.356;2023-07-30T00:31:20;3.90;;;3.25;;
79243;SDS011;68672;42.676;23.356;2023-07-30T00:33:45;7.55;;;3.33;;
79243;SDS011;68672;42.676;23.356;2023-07-30T00:36:11;3.42;;;3.00;;
79243;SDS011;68672;42.676;23.356;2023-07-30T00:38:36;3.92;;;2.85;;
79243;SDS011;68672;42.676;23.356;2023-07-30T00:41:05;4.85;;;3.22;;
79243;SDS011;68672;42.676;23.356;2023-07-30T00:43:30;4.38;;;3.45;;
79243;SDS011;68672;42.676;23.356;2023-07-30T00:45:55;4.28;;;3.20;;
79243;SDS011;68672;42.676;23.356;2023-07-30T00:48:21;4.88;;;3.28;;
79243;SDS011;68672;42.676;23.356;2023-07-30T00:50:46;5.72;;;3.20;;
79243;SDS011;68672;42.676;23.356;2023-07-30T00:53:13;3.88;;;2.72;;
79243;SDS011;68672;42.676;23.356;2023-07-30T00:55:43;3.80;;;3.40;;
79243;SDS011;68672;42.676;23.356;2023-07-30T00:58:12;4.35;;;3.47;;
79243;SDS011;68672;42.676;23.356;2023-07-30T01:00:37;4.30;;;3.50;;
79243;SDS011;68672;42.676;23.356;2023-07-30T01:03:03;5.90;;;3.10;;
79243;SDS011;68672;42.676;23.356;2023-07-30T01:05:29;6.53;;;3.33;;
79243;SDS011;68672;42.676;23.356;2023-07-30T01:07:54;3.95;;;3.10;;
79243;SDS011;68672;42.676;23.356;2023-07-30T01:10:20;5.75;;;3.30;;
79243;SDS011;68672;42.676;23.356;2023-07-30T01:12:47;3.70;;;2.83;;
79243;SDS011;68672;42.676;23.356;2023-07-30T01:15:13;4.47;;;3.15;;
79243;SDS011;68672;42.676;23.356;2023-07-30T01:17:39;4.13;;;3.30;;
79243;SDS011;68672;42.676;23.356;2023-07-30T01:20:05;4.22;;;3.47;;
79243;SDS011;68672;42.676;23.356;2023-07-30T01:22:31;3.88;;;2.80;;
79243;SDS011;68672;42.676;23.356;2023-07-30T01:24:56;4.95;;;3.03;;
79243;SDS011;68672;42.676;23.356;2023-07-30T01:27:23;5.25;;;3.10;;
79243;SDS011;68672;42.676;23.356;2023-07-30T01:30:34;4.15;;;3.15;;
79243;SDS011;68672;42.676;23.356;2023-07-30T01:32:43;4.15;;;2.80;;
79243;SDS011;68672;42.676;23.356;2023-07-30T01:35:13;4.90;;;2.90;;
79243;SDS011;68672;42.676;23.356;2023-07-30T01:37:40;5.75;;;3.00;;
79243;SDS011;68672;42.676;23.356;2023-07-30T01:40:08;4.38;;;3.30;;
79243;SDS011;68672;42.676;23.356;2023-07-30T01:42:34;4.50;;;2.80;;
79243;SDS011;68672;42.676;23.356;2023-07-30T01:45:00;4.93;;;3.20;;
79243;SDS011;68672;42.676;23.356;2023-07-30T01:47:25;4.55;;;2.83;;
79243;SDS011;68672;42.676;23.356;2023-07-30T01:49:51;3.97;;;3.15;;
79243;SDS011;68672;42.676;23.356;2023-07-30T01:52:16;3.95;;;2.60;;
79243;SDS011;68672;42.676;23.356;2023-07-30T01:54:44;4.15;;;3.15;;
79243;SDS011;68672;42.676;23.356;2023-07-30T01:57:09;5.45;;;3.40;;
79243;SDS011;68672;42.676;23.356;2023-07-30T01:59:35;4.88;;;2.90;;
79243;SDS011;68672;42.676;23.356;2023-07-30T02:02:03;4.07;;;3.05;;
79243;SDS011;68672;42.676;23.356;2023-07-30T02:04:29;5.93;;;3.05;;
79243;SDS011;68672;42.676;23.356;2023-07-30T02:06:57;4.93;;;3.30;;
79243;SDS011;68672;42.676;23.356;2023-07-30T02:09:22;4.25;;;3.20;;
79243;SDS011;68672;42.676;23.356;2023-07-30T02:11:48;4.53;;;3.38;;
79243;SDS011;68672;42.676;23.356;2023-07-30T02:14:13;3.10;;;2.67;;
79243;SDS011;68672;42.676;23.356;2023-07-30T02:16:39;5.45;;;3.33;;
79243;SDS011;68672;42.676;23.356;2023-07-30T02:19:04;4.07;;;2.70;;
79243;SDS011;68672;42.676;23.356;2023-07-30T02:21:32;4.15;;;3.08;;
79243;SDS011;68672;42.676;23.356;2023-07-30T02:24:01;4.28;;;3.00;;
79243;SDS011;68672;42.676;23.356;2023-07-30T02:26:26;3.10;;;2.60;;
79243;SDS011;68672;42.676;23.356;2023-07-30T02:28:51;3.78;;;3.17;;
79243;SDS011;68672;42.676;23.356;2023-07-30T02:31:17;4.93;;;2.60;;
79243;SDS011;68672;42.676;23.356;2023-07-30T02:33:46;4.60;;;3.30;;
79243;SDS011;68672;42.676;23.356;2023-07-30T02:36:11;3.88;;;2.80;;
79243;SDS011;68672;42.676;23.356;2023-07-30T02:38:39;4.15;;;3.03;;
79243;SDS011;68672;42.676;23.356;2023-07-30T02:41:07;5.45;;;3.20;;
79243;SDS011;68672;42.676;23.356;2023-07-30T02:43:33;4.68;;;3.03;;
79243;SDS011;68672;42.676;23.356;2023-07-30T02:45:58;4.68;;;3.15;;
79243;SDS011;68672;42.676;23.356;2023-07-30T02:48:24;5.68;;;3.30;;
79243;SDS011;68672;42.676;23.356;2023-07-30T02:50:49;6.05;;;3.60;;
79243;SDS011;68672;42.676;23.356;2023-07-30T02:53:17;5.03;;;2.92;;
79243;SDS011;68672;42.676;23.356;2023-07-30T02:55:43;4.18;;;3.20;;
79243;SDS011;68672;42.676;23.356;2023-07-30T02:58:08;4.18;;;2.92;;
79243;SDS011;68672;42.676;23.356;2023-07-30T03:00:33;4.10;;;2.90;;
79243;SDS011;68672;42.676;23.356;2023-07-30T03:02:59;4.28;;;2.65;;
79243;SDS011;68672;42.676;23.356;2023-07-30T03:05:27;4.65;;;3.38;;
79243;SDS011;68672;42.676;23.356;2023-07-30T03:07:52;4.68;;;3.28;;
79243;SDS011;68672;42.676;23.356;2023-07-30T03:10:18;3.90;;;3.00;;
79243;SDS011;68672;42.676;23.356;2023-07-30T03:12:43;4.82;;;3.08;;
79243;SDS011;68672;42.676;23.356;2023-07-30T03:15:09;4.63;;;2.80;;
79243;SDS011;68672;42.676;23.356;2023-07-30T03:17:34;4.55;;;3.35;;
79243;SDS011;68672;42.676;23.356;2023-07-30T03:20:00;3.97;;;3.00;;
79243;SDS011;68672;42.676;23.356;2023-07-30T03:22:25;4.68;;;3.80;;
79243;SDS011;68672;42.676;23.356;2023-07-30T03:24:56;4.38;;;2.88;;
79243;SDS011;68672;42.676;23.356;2023-07-30T03:27:22;3.75;;;2.97;;
79243;SDS011;68672;42.676;23.356;2023-07-30T03:29:47;3.72;;;2.83;;
79243;SDS011;68672;42.676;23.356;2023-07-30T03:32:12;3.95;;;2.95;;
79243;SDS011;68672;42.676;23.356;2023-07-30T03:34:38;5.30;;;3.55;;
79243;SDS011;68672;42.676;23.356;2023-07-30T03:37:03;3.63;;;2.83;;
79243;SDS011;68672;42.676;23.356;2023-07-30T03:39:29;3.42;;;2.70;;
79243;SDS011;68672;42.676;23.356;2023-07-30T03:41:54;3.65;;;3.25;;
79243;SDS011;68672;42.676;23.356;2023-07-30T03:44:20;4.28;;;3.28;;
79243;SDS011;68672;42.676;23.356;2023-07-30T03:46:45;4.55;;;3.15;;
79243;SDS011;68672;42.676;23.356;2023-07-30T03:49:11;6.25;;;3.53;;
79243;SDS011;68672;42.676;23.356;2023-07-30T03:51:36;4.72;;;3.20;;
79243;SDS011;68672;42.676;23.356;2023-07-30T03:54:05;5.45;;;3.08;;
79243;SDS011;68672;42.676;23.356;2023-07-30T03:56:30;5.13;;;3.38;;
79243;SDS011;68672;42.676;23.356;2023-07-30T03:58:56;4.50;;;3.28;;
79243;SDS011;68672;42.676;23.356;2023-07-30T04:01:21;3.53;;;3.13;;
79243;SDS011;68672;42.676;23.356;2023-07-30T04:03:47;4.50;;;3.08;;
79243;SDS011;68672;42.676;23.356;2023-07-30T04:06:12;5.07;;;3.45;;
79243;SDS011;68672;42.676;23.356;2023-07-30T04:08:40;5.97;;;3.50;;
79243;SDS011;68672;42.676;23.356;2023-07-30T04:11:08;6.53;;;3.67;;
79243;SDS011;68672;42.676;23.356;2023-07-30T04:13:34;4.55;;;3.08;;
79243;SDS011;68672;42.676;23.356;2023-07-30T04:15:59;4.72;;;2.85;;
79243;SDS011;68672;42.676;23.356;2023-07-30T04:18:25;4.28;;;3.05;;
79243;SDS011;68672;42.676;23.356;2023-07-30T04:20:50;4.28;;;3.28;;
79243;SDS011;68672;42.676;23.356;2023-07-30T04:23:18;4.43;;;3.00;;
79243;SDS011;68672;42.676;23.356;2023-07-30T04:25:44;4.78;;;3.10;;
79243;SDS011;68672;42.676;23.356;2023-07-30T04:28:09;5.63;;;3.70;;
79243;SDS011;68672;42.676;23.356;2023-07-30T04:30:34;4.68;;;3.10;;
79243;SDS011;68672;42.676;23.356;2023-07-30T04:33:00;4.47;;;3.22;;
79243;SDS011;68672;42.676;23.356;2023-07-30T04:35:25;4.75;;;3.35;;
79243;SDS011;68672;42.676;23.356;2023-07-30T04:37:51;4.75;;;3.28;;
79243;SDS011;68672;42.676;23.356;2023-07-30T04:40:16;4.82;;;2.80;;
79243;SDS011;68672;42.676;23.356;2023-07-30T04:42:44;5.28;;;3.13;;
79243;SDS011;68672;42.676;23.356;2023-07-30T04:45:11;4.82;;;3.28;;
79243;SDS011;68672;42.676;23.356;2023-07-30T04:47:36;4.75;;;2.85;;
79243;SDS011;68672;42.676;23.356;2023-07-30T04:50:05;4.75;;;3.70;;
79243;SDS011;68672;42.676;23.356;2023-07-30T04:52:30;3.63;;;2.90;;
79243;SDS011;68672;42.676;23.356;2023-07-30T04:54:56;3.88;;;3.15;;
79243;SDS011;68672;42.676;23.356;2023-07-30T04:57:21;5.53;;;3.38;;
79243;SDS011;68672;42.676;23.356;2023-07-30T04:59:47;3.97;;;3.58;;
79243;SDS011;68672;42.676;23.356;2023-07-30T05:02:12;5.00;;;3.60;;
79243;SDS011;68672;42.676;23.356;2023-07-30T05:04:38;5.68;;;3.40;;
79243;SDS011;68672;42.676;23.356;2023-07-30T05:07:03;4.35;;;3.08;;
79243;SDS011;68672;42.676;23.356;2023-07-30T05:09:29;4.13;;;3.20;;
79243;SDS011;68672;42.676;23.356;2023-07-30T05:11:54;3.30;;;2.83;;
79243;SDS011;68672;42.676;23.356;2023-07-30T05:14:20;5.03;;;3.40;;
79243;SDS011;68672;42.676;23.356;2023-07-30T05:16:45;4.20;;;3.28;;
79243;SDS011;68672;42.676;23.356;2023-07-30T05:19:10;4.38;;;3.20;;
79243;SDS011;68672;42.676;23.356;2023-07-30T05:21:36;3.78;;;3.40;;
79243;SDS011;68672;42.676;23.356;2023-07-30T05:24:02;4.53;;;3.45;;
79243;SDS011;68672;42.676;23.356;2023-07-30T05:26:27;4.75;;;3.17;;
79243;SDS011;68672;42.676;23.356;2023-07-30T05:28:53;5.05;;;3.70;;
79243;SDS011;68672;42.676;23.356;2023-07-30T05:31:18;8.13;;;3.70;;
79243;SDS011;68672;42.676;23.356;2023-07-30T05:33:44;5.07;;;4.03;;
79243;SDS011;68672;42.676;23.356;2023-07-30T05:36:09;5.15;;;3.83;;
79243;SDS011;68672;42.676;23.356;2023-07-30T05:38:35;5.03;;;3.72;;
79243;SDS011;68672;42.676;23.356;2023-07-30T05:41:00;4.82;;;3.53;;
79243;SDS011;68672;42.676;23.356;2023-07-30T05:43:25;5.95;;;3.88;;
79243;SDS011;68672;42.676;23.356;2023-07-30T05:45:51;7.28;;;4.25;;
79243;SDS011;68672;42.676;23.356;2023-07-30T05:48:16;7.07;;;3.65;;
79243;SDS011;68672;42.676;23.356;2023-07-30T05:50:41;6.43;;;3.63;;
79243;SDS011;68672;42.676;23.356;2023-07-30T05:53:07;4.97;;;3.67;;
79243;SDS011;68672;42.676;23.356;2023-07-30T05:55:35;5.00;;;4.10;;
79243;SDS011;68672;42.676;23.356;2023-07-30T05:58:01;6.03;;;4.07;;
79243;SDS011;68672;42.676;23.356;2023-07-30T06:00:26;5.88;;;4.05;;
79243;SDS011;68672;42.676;23.356;2023-07-30T06:02:52;4.47;;;3.35;;
79243;SDS011;68672;42.676;23.356;2023-07-30T06:05:17;6.80;;;3.92;;
79243;SDS011;68672;42.676;23.356;2023-07-30T06:07:45;5.05;;;3.70;;
79243;SDS011;68672;42.676;23.356;2023-07-30T06:10:14;6.38;;;3.88;;
79243;SDS011;68672;42.676;23.356;2023-07-30T06:12:39;4.05;;;3.30;;
79243;SDS011;68672;42.676;23.356;2023-07-30T06:15:05;6.72;;;3.55;;
79243;SDS011;68672;42.676;23.356;2023-07-30T06:19:59;5.22;;;3.75;;
79243;SDS011;68672;42.676;23.356;2023-07-30T06:22:24;5.85;;;3.72;;
79243;SDS011;68672;42.676;23.356;2023-07-30T06:24:50;5.57;;;3.88;;
79243;SDS011;68672;42.676;23.356;2023-07-30T06:27:15;5.15;;;4.38;;
79243;SDS011;68672;42.676;23.356;2023-07-30T06:29:44;5.40;;;3.78;;
79243;SDS011;68672;42.676;23.356;2023-07-30T06:32:09;5.47;;;3.10;;
79243;SDS011;68672;42.676;23.356;2023-07-30T06:34:38;4.88;;;3.40;;
79243;SDS011;68672;42.676;23.356;2023-07-30T06:37:03;4.97;;;3.72;;
79243;SDS011;68672;42.676;23.356;2023-07-30T06:39:29;4.82;;;4.15;;
79243;SDS011;68672;42.676;23.356;2023-07-30T06:41:54;5.63;;;4.40;;
79243;SDS011;68672;42.676;23.356;2023-07-30T06:44:20;4.47;;;3.35;;
79243;SDS011;68672;42.676;23.356;2023-07-30T06:46:45;4.30;;;3.08;;
79243;SDS011;68672;42.676;23.356;2023-07-30T06:49:14;4.13;;;3.58;;
79243;SDS011;68672;42.676;23.356;2023-07-30T06:51:39;5.55;;;3.92;;
79243;SDS011;68672;42.676;23.356;2023-07-30T06:54:04;5.65;;;3.35;;
79243;SDS011;68672;42.676;23.356;2023-07-30T06:56:32;4.55;;;3.22;;
79243;SDS011;68672;42.676;23.356;2023-07-30T06:58:59;4.15;;;2.95;;
79243;SDS011;68672;42.676;23.356;2023-07-30T07:01:24;3.28;;;2.83;;
79243;SDS011;68672;42.676;23.356;2023-07-30T07:03:59;4.13;;;3.25;;
79243;SDS011;68672;42.676;23.356;2023-07-30T07:06:24;3.90;;;3.40;;
79243;SDS011;68672;42.676;23.356;2023-07-30T07:08:49;6.05;;;3.90;;
79243;SDS011;68672;42.676;23.356;2023-07-30T07:11:15;5.13;;;3.50;;
79243;SDS011;68672;42.676;23.356;2023-07-30T07:13:40;5.28;;;3.17;;
79243;SDS011;68672;42.676;23.356;2023-07-30T07:16:06;4.78;;;3.17;;
79243;SDS011;68672;42.676;23.356;2023-07-30T07:18:31;5.25;;;3.20;;
79243;SDS011;68672;42.676;23.356;2023-07-30T07:20:57;4.47;;;3.25;;
79243;SDS011;68672;42.676;23.356;2023-07-30T07:23:22;3.78;;;3.10;;
79243;SDS011;68672;42.676;23.356;2023-07-30T07:25:47;4.60;;;3.40;;
79243;SDS011;68672;42.676;23.356;2023-07-30T07:28:13;5.43;;;3.35;;
79243;SDS011;68672;42.676;23.356;2023-07-30T07:30:38;5.93;;;4.10;;
79243;SDS011;68672;42.676;23.356;2023-07-30T07:33:04;6.88;;;3.80;;
79243;SDS011;68672;42.676;23.356;2023-07-30T07:35:30;6.05;;;3.50;;
79243;SDS011;68672;42.676;23.356;2023-07-30T07:37:56;4.85;;;3.85;;
79243;SDS011;68672;42.676;23.356;2023-07-30T07:40:22;6.95;;;3.67;;
79243;SDS011;68672;42.676;23.356;2023-07-30T07:42:50;5.20;;;3.47;;
79243;SDS011;68672;42.676;23.356;2023-07-30T07:45:22;7.82;;;3.60;;
79243;SDS011;68672;42.676;23.356;2023-07-30T07:47:47;5.88;;;3.42;;
79243;SDS011;68672;42.676;23.356;2023-07-30T07:50:12;4.10;;;3.28;;
79243;SDS011;68672;42.676;23.356;2023-07-30T07:52:38;6.13;;;3.55;;
79243;SDS011;68672;42.676;23.356;2023-07-30T07:55:04;4.50;;;3.05;;
79243;SDS011;68672;42.676;23.356;2023-07-30T07:57:39;6.28;;;3.50;;
79243;SDS011;68672;42.676;23.356;2023-07-30T08:00:05;4.85;;;3.65;;
79243;SDS011;68672;42.676;23.356;2023-07-30T08:02:31;4.28;;;3.22;;
79243;SDS011;68672;42.676;23.356;2023-07-30T08:04:56;4.78;;;3.65;;
79243;SDS011;68672;42.676;23.356;2023-07-30T08:07:22;4.57;;;3.80;;
79243;SDS011;68672;42.676;23.356;2023-07-30T08:09:47;4.13;;;3.00;;
79243;SDS011;68672;42.676;23.356;2023-07-30T08:12:16;3.78;;;3.33;;
79243;SDS011;68672;42.676;23.356;2023-07-30T08:14:44;6.10;;;3.70;;
79243;SDS011;68672;42.676;23.356;2023-07-30T08:17:10;4.30;;;3.25;;
79243;SDS011;68672;42.676;23.356;2023-07-30T08:19:35;4.47;;;3.65;;
79243;SDS011;68672;42.676;23.356;2023-07-30T08:22:01;4.50;;;3.33;;
79243;SDS011;68672;42.676;23.356;2023-07-30T08:24:26;6.85;;;3.58;;
79243;SDS011;68672;42.676;23.356;2023-07-30T08:26:51;4.28;;;3.38;;
79243;SDS011;68672;42.676;23.356;2023-07-30T08:29:17;5.05;;;3.58;;
79243;SDS011;68672;42.676;23.356;2023-07-30T08:31:42;5.32;;;3.75;;
79243;SDS011;68672;42.676;23.356;2023-07-30T08:34:10;4.60;;;3.33;;
79243;SDS011;68672;42.676;23.356;2023-07-30T08:36:36;4.15;;;3.22;;
79243;SDS011;68672;42.676;23.356;2023-07-30T08:39:01;4.35;;;3.53;;
79243;SDS011;68672;42.676;23.356;2023-07-30T08:41:29;3.67;;;2.97;;
79243;SDS011;68672;42.676;23.356;2023-07-30T08:43:55;3.85;;;3.40;;
79243;SDS011;68672;42.676;23.356;2023-07-30T08:46:20;6.15;;;3.40;;
79243;SDS011;68672;42.676;23.356;2023-07-30T08:48:46;4.30;;;3.15;;
79243;SDS011;68672;42.676;23.356;2023-07-30T08:51:11;4.32;;;2.80;;
79243;SDS011;68672;42.676;23.356;2023-07-30T08:53:38;5.78;;;3.58;;
79243;SDS011;68672;42.676;23.356;2023-07-30T08:56:04;4.75;;;3.38;;
79243;SDS011;68672;42.676;23.356;2023-07-30T08:58:31;3.88;;;3.38;;
79243;SDS011;68672;42.676;23.356;2023-07-30T09:00:58;4.10;;;3.20;;
79243;SDS011;68672;42.676;23.356;2023-07-30T09:03:26;5.10;;;3.78;;
79243;SDS011;68672;42.676;23.356;2023-07-30T09:05:53;5.28;;;3.67;;
79243;SDS011;68672;42.676;23.356;2023-07-30T09:08:18;4.18;;;3.38;;
79243;SDS011;68672;42.676;23.356;2023-07-30T09:10:44;4.10;;;3.00;;
79243;SDS011;68672;42.676;23.356;2023-07-30T09:13:11;4.13;;;3.22;;
79243;SDS011;68672;42.676;23.356;2023-07-30T09:15:39;4.85;;;3.42;;
79243;SDS011;68672;42.676;23.356;2023-07-30T09:18:05;4.80;;;3.45;;
79243;SDS011;68672;42.676;23.356;2023-07-30T09:20:40;3.88;;;3.05;;
79243;SDS011;68672;42.676;23.356;2023-07-30T09:23:07;5.82;;;3.88;;
79243;SDS011;68672;42.676;23.356;2023-07-30T09:25:34;4.43;;;3.50;;
79243;SDS011;68672;42.676;23.356;2023-07-30T09:28:00;4.10;;;3.13;;
79243;SDS011;68672;42.676;23.356;2023-07-30T09:30:26;4.43;;;3.47;;
79243;SDS011;68672;42.676;23.356;2023-07-30T09:32:55;4.97;;;3.40;;
79243;SDS011;68672;42.676;23.356;2023-07-30T09:35:21;5.80;;;3.30;;
79243;SDS011;68672;42.676;23.356;2023-07-30T09:37:50;4.38;;;3.20;;
79243;SDS011;68672;42.676;23.356;2023-07-30T09:40:29;4.70;;;2.88;;
79243;SDS011;68672;42.676;23.356;2023-07-30T09:43:02;4.63;;;3.40;;
79243;SDS011;68672;42.676;23.356;2023-07-30T09:45:28;4.30;;;3.33;;
79243;SDS011;68672;42.676;23.356;2023-07-30T09:47:54;4.30;;;3.40;;
79243;SDS011;68672;42.676;23.356;2023-07-30T09:50:21;4.40;;;3.10;;
79243;SDS011;68672;42.676;23.356;2023-07-30T09:52:50;4.57;;;3.47;;
79243;SDS011;68672;42.676;23.356;2023-07-30T09:55:16;3.72;;;3.13;;
79243;SDS011;68672;42.676;23.356;2023-07-30T09:57:43;3.60;;;3.22;;
79243;SDS011;68672;42.676;23.356;2023-07-30T10:00:09;4.13;;;3.47;;
79243;SDS011;68672;42.676;23.356;2023-07-30T10:02:39;4.25;;;3.22;;
79243;SDS011;68672;42.676;23.356;2023-07-30T10:05:10;5.05;;;3.70;;
79243;SDS011;68672;42.676;23.356;2023-07-30T10:07:38;4.43;;;3.53;;
79243;SDS011;68672;42.676;23.356;2023-07-30T10:10:07;3.75;;;2.65;;
79243;SDS011;68672;42.676;23.356;2023-07-30T10:12:35;3.83;;;3.30;;
79243;SDS011;68672;42.676;23.356;2023-07-30T10:15:01;4.43;;;3.40;;
79243;SDS011;68672;42.676;23.356;2023-07-30T10:17:27;4.20;;;3.35;;
79243;SDS011;68672;42.676;23.356;2023-07-30T10:19:55;3.47;;;3.15;;
79243;SDS011;68672;42.676;23.356;2023-07-30T10:22:43;4.53;;;3.42;;
79243;SDS011;68672;42.676;23.356;2023-07-30T10:25:12;5.07;;;3.92;;
79243;SDS011;68672;42.676;23.356;2023-07-30T10:27:39;5.57;;;3.40;;
79243;SDS011;68672;42.676;23.356;2023-07-30T10:32:38;4.53;;;3.20;;
79243;SDS011;68672;42.676;23.356;2023-07-30T10:35:05;5.03;;;3.88;;
79243;SDS011;68672;42.676;23.356;2023-07-30T10:37:30;4.38;;;3.40;;
79243;SDS011;68672;42.676;23.356;2023-07-30T10:39:56;4.53;;;3.42;;
79243;SDS011;68672;42.676;23.356;2023-07-30T10:42:21;4.50;;;3.63;;
79243;SDS011;68672;42.676;23.356;2023-07-30T10:44:47;5.32;;;3.55;;
79243;SDS011;68672;42.676;23.356;2023-07-30T10:47:14;6.45;;;3.47;;
79243;SDS011;68672;42.676;23.356;2023-07-30T10:49:39;4.32;;;3.58;;
79243;SDS011;68672;42.676;23.356;2023-07-30T10:52:11;4.82;;;3.35;;
79243;SDS011;68672;42.676;23.356;2023-07-30T10:54:37;4.35;;;3.45;;
79243;SDS011;68672;42.676;23.356;2023-07-30T10:57:03;4.15;;;3.75;;
79243;SDS011;68672;42.676;23.356;2023-07-30T10:59:35;5.55;;;3.55;;
79243;SDS011;68672;42.676;23.356;2023-07-30T11:02:04;5.15;;;3.40;;
79243;SDS011;68672;42.676;23.356;2023-07-30T11:04:33;5.07;;;3.50;;
79243;SDS011;68672;42.676;23.356;2023-07-30T11:06:59;4.10;;;3.40;;
79243;SDS011;68672;42.676;23.356;2023-07-30T11:09:25;4.22;;;3.83;;
79243;SDS011;68672;42.676;23.356;2023-07-30T11:11:52;4.32;;;3.42;;
79243;SDS011;68672;42.676;23.356;2023-07-30T11:14:20;4.38;;;3.40;;
79243;SDS011;68672;42.676;23.356;2023-07-30T11:16:50;5.20;;;4.20;;
79243;SDS011;68672;42.676;23.356;2023-07-30T11:19:17;5.15;;;3.65;;
79243;SDS011;68672;42.676;23.356;2023-07-30T11:21:47;4.43;;;3.67;;
79243;SDS011;68672;42.676;23.356;2023-07-30T11:24:14;4.53;;;3.50;;
79243;SDS011;68672;42.676;23.356;2023-07-30T11:26:39;4.72;;;3.65;;
79243;SDS011;68672;42.676;23.356;2023-07-30T11:29:17;6.50;;;4.13;;
79243;SDS011;68672;42.676;23.356;2023-07-30T11:31:46;4.57;;;3.67;;
79243;SDS011;68672;42.676;23.356;2023-07-30T11:34:15;4.20;;;3.55;;
79243;SDS011;68672;42.676;23.356;2023-07-30T11:36:43;3.97;;;3.55;;
79243;SDS011;68672;42.676;23.356;2023-07-30T11:39:09;4.60;;;4.13;;
79243;SDS011;68672;42.676;23.356;2023-07-30T11:41:35;4.05;;;3.55;;
79243;SDS011;68672;42.676;23.356;2023-07-30T11:44:01;4.13;;;3.55;;
79243;SDS011;68672;42.676;23.356;2023-07-30T11:46:30;4.90;;;3.75;;
79243;SDS011;68672;42.676;23.356;2023-07-30T11:49:14;5.40;;;3.75;;
79243;SDS011;68672;42.676;23.356;2023-07-30T11:51:42;4.00;;;3.45;;
79243;SDS011;68672;42.676;23.356;2023-07-30T11:54:17;4.78;;;3.78;;
79243;SDS011;68672;42.676;23.356;2023-07-30T11:56:45;4.40;;;3.47;;
79243;SDS011;68672;42.676;23.356;2023-07-30T11:59:19;3.97;;;3.28;;
79243;SDS011;68672;42.676;23.356;2023-07-30T12:01:46;4.70;;;4.10;;
79243;SDS011;68672;42.676;23.356;2023-07-30T12:04:12;5.43;;;3.95;;
79243;SDS011;68672;42.676;23.356;2023-07-30T12:06:41;4.80;;;3.63;;
79243;SDS011;68672;42.676;23.356;2023-07-30T12:09:15;4.38;;;3.83;;
79243;SDS011;68672;42.676;23.356;2023-07-30T12:11:52;6.60;;;3.90;;
79243;SDS011;68672;42.676;23.356;2023-07-30T12:14:21;6.30;;;4.00;;
79243;SDS011;68672;42.676;23.356;2023-07-30T12:16:54;4.60;;;3.60;;
79243;SDS011;68672;42.676;23.356;2023-07-30T12:19:21;4.47;;;3.42;;
79243;SDS011;68672;42.676;23.356;2023-07-30T12:21:47;4.65;;;4.03;;
79243;SDS011;68672;42.676;23.356;2023-07-30T12:24:12;4.45;;;3.72;;
79243;SDS011;68672;42.676;23.356;2023-07-30T12:26:38;4.72;;;3.78;;
79243;SDS011;68672;42.676;23.356;2023-07-30T12:29:24;4.82;;;3.60;;
79243;SDS011;68672;42.676;23.356;2023-07-30T12:31:49;4.18;;;3.78;;
79243;SDS011;68672;42.676;23.356;2023-07-30T12:36:47;4.40;;;3.67;;
79243;SDS011;68672;42.676;23.356;2023-07-30T12:39:12;6.22;;;4.03;;
79243;SDS011;68672;42.676;23.356;2023-07-30T12:41:38;5.15;;;4.15;;
79243;SDS011;68672;42.676;23.356;2023-07-30T12:44:06;5.07;;;4.00;;
79243;SDS011;68672;42.676;23.356;2023-07-30T12:46:32;4.93;;;4.15;;
79243;SDS011;68672;42.676;23.356;2023-07-30T12:48:58;5.97;;;3.85;;
79243;SDS011;68672;42.676;23.356;2023-07-30T12:51:29;5.00;;;4.43;;
79243;SDS011;68672;42.676;23.356;2023-07-30T12:53:57;5.53;;;4.47;;
79243;SDS011;68672;42.676;23.356;2023-07-30T12:56:23;5.15;;;3.80;;
79243;SDS011;68672;42.676;23.356;2023-07-30T12:58:48;5.00;;;3.90;;
79243;SDS011;68672;42.676;23.356;2023-07-30T13:01:14;5.30;;;4.15;;
79243;SDS011;68672;42.676;23.356;2023-07-30T13:03:39;4.60;;;3.97;;
79243;SDS011;68672;42.676;23.356;2023-07-30T13:06:09;4.57;;;4.05;;
79243;SDS011;68672;42.676;23.356;2023-07-30T13:08:36;6.40;;;4.40;;
79243;SDS011;68672;42.676;23.356;2023-07-30T13:11:04;4.50;;;3.75;;
79243;SDS011;68672;42.676;23.356;2023-07-30T13:13:29;4.63;;;4.15;;
79243;SDS011;68672;42.676;23.356;2023-07-30T13:15:55;4.65;;;4.25;;
79243;SDS011;68672;42.676;23.356;2023-07-30T13:18:23;4.97;;;4.18;;
79243;SDS011;68672;42.676;23.356;2023-07-30T13:20:48;4.60;;;3.78;;
79243;SDS011;68672;42.676;23.356;2023-07-30T13:23:14;4.47;;;4.07;;
79243;SDS011;68672;42.676;23.356;2023-07-30T13:25:40;4.50;;;3.95;;
79243;SDS011;68672;42.676;23.356;2023-07-30T13:28:06;5.15;;;4.07;;
79243;SDS011;68672;42.676;23.356;2023-07-30T13:30:34;5.45;;;3.80;;
79243;SDS011;68672;42.676;23.356;2023-07-30T13:33:05;4.38;;;3.95;;
79243;SDS011;68672;42.676;23.356;2023-07-30T13:35:33;5.85;;;4.55;;
79243;SDS011;68672;42.676;23.356;2023-07-30T13:37:58;6.10;;;4.45;;
79243;SDS011;68672;42.676;23.356;2023-07-30T13:40:24;4.45;;;4.00;;
79243;SDS011;68672;42.676;23.356;2023-07-30T13:42:50;4.85;;;4.35;;
79243;SDS011;68672;42.676;23.356;2023-07-30T13:45:18;4.93;;;4.43;;
79243;SDS011;68672;42.676;23.356;2023-07-30T13:47:43;5.50;;;4.20;;
79243;SDS011;68672;42.676;23.356;2023-07-30T13:50:09;5.25;;;4.22;;
79243;SDS011;68672;42.676;23.356;2023-07-30T13:52:37;4.70;;;4.20;;
79243;SDS011;68672;42.676;23.356;2023-07-30T13:55:05;4.80;;;3.80;;
79243;SDS011;68672;42.676;23.356;2023-07-30T13:57:31;4.25;;;3.85;;
79243;SDS011;68672;42.676;23.356;2023-07-30T13:59:56;4.22;;;3.83;;
79243;SDS011;68672;42.676;23.356;2023-07-30T14:02:21;5.35;;;4.38;;
79243;SDS011;68672;42.676;23.356;2023-07-30T14:04:47;5.10;;;3.70;;
79243;SDS011;68672;42.676;23.356;2023-07-30T14:07:15;6.32;;;4.13;;
79243;SDS011;68672;42.676;23.356;2023-07-30T14:09:40;4.90;;;4.32;;
79243;SDS011;68672;42.676;23.356;2023-07-30T14:12:08;4.80;;;4.03;;
79243;SDS011;68672;42.676;23.356;2023-07-30T14:14:36;6.15;;;4.32;;
79243;SDS011;68672;42.676;23.356;2023-07-30T14:17:01;5.78;;;4.30;;
79243;SDS011;68672;42.676;23.356;2023-07-30T14:19:31;5.05;;;4.47;;
79243;SDS011;68672;42.676;23.356;2023-07-30T14:21:57;4.95;;;4.22;;
79243;SDS011;68672;42.676;23.356;2023-07-30T14:24:23;4.35;;;3.65;;
79243;SDS011;68672;42.676;23.356;2023-07-30T14:26:49;6.28;;;3.85;;
79243;SDS011;68672;42.676;23.356;2023-07-30T14:29:14;5.20;;;4.18;;
79243;SDS011;68672;42.676;23.356;2023-07-30T14:31:40;6.07;;;4.05;;
79243;SDS011;68672;42.676;23.356;2023-07-30T14:34:05;5.00;;;3.92;;
79243;SDS011;68672;42.676;23.356;2023-07-30T14:36:36;4.60;;;4.10;;
79243;SDS011;68672;42.676;23.356;2023-07-30T14:39:02;5.43;;;4.18;;